sensor_id;sensor_type;location;lat;lon;timestamp;pressure;altitude;pressure_sealevel;temperature;humidity
17060;BME280;8646;49.716;9.266;2023-04-26T00:02:15;100446.41;;;5.37;73.40
17060;BME280;8646;49.716;9.266;2023-04-26T00:05:20;100439.34;;;5.33;73.80
17060;BME280;8646;49.716;9.266;2023-04-26T00:08:23;100440.28;;;5.32;73.92
17060;BME280;8646;49.716;9.266;2023-04-26T00:11:26;100443.84;;;5.32;74.20
17060;BME280;8646;49.716;9.266;2023-04-26T00:14:28;100446.69;;;5.23;73.94
17060;BME280;8646;49.716;9.266;2023-04-26T00:17:31;100444.06;;;5.20;74.44
17060;BME280;8646;49.716;9.266;2023-04-26T00:20:35;100447.72;;;5.18;74.42
17060;BME280;8646;49.716;9.266;2023-04-26T00:23:38;100450.53;;;5.10;74.42
17060;BME280;8646;49.716;9.266;2023-04-26T00:26:42;100453.25;;;5.07;74.76
17060;BME280;8646;49.716;9.266;2023-04-26T00:29:45;100448.91;;;5.02;75.12
17060;BME280;8646;49.716;9.266;2023-04-26T00:32:48;100456.03;;;5.03;75.46
17060;BME280;8646;49.716;9.266;2023-04-26T00:35:52;100450.75;;;4.96;75.66
17060;BME280;8646;49.716;9.266;2023-04-26T00:38:55;100456.19;;;4.93;75.65
17060;BME280;8646;49.716;9.266;2023-04-26T00:41:58;100466.06;;;4.91;75.71
17060;BME280;8646;49.716;9.266;2023-04-26T00:45:01;100463.44;;;4.88;75.68
17060;BME280;8646;49.716;9.266;2023-04-26T00:48:04;100466.19;;;4.85;76.03
17060;BME280;8646;49.716;9.266;2023-04-26T00:51:09;100468.00;;;4.83;76.15
17060;BME280;8646;49.716;9.266;2023-04-26T00:54:12;100477.03;;;4.78;76.15
17060;BME280;8646;49.716;9.266;2023-04-26T00:57:15;100474.38;;;4.76;76.22
17060;BME280;8646;49.716;9.266;2023-04-26T01:00:18;100477.16;;;4.70;76.37
17060;BME280;8646;49.716;9.266;2023-04-26T01:03:23;100476.31;;;4.67;76.11
17060;BME280;8646;49.716;9.266;2023-04-26T01:06:32;100487.06;;;4.65;76.50
17060;BME280;8646;49.716;9.266;2023-04-26T01:09:36;100473.75;;;4.59;76.35
17060;BME280;8646;49.716;9.266;2023-04-26T01:12:39;100471.19;;;4.51;76.17
17060;BME280;8646;49.716;9.266;2023-04-26T01:15:43;100485.53;;;4.49;76.65
17060;BME280;8646;49.716;9.266;2023-04-26T01:18:49;100484.72;;;4.44;76.50
17060;BME280;8646;49.716;9.266;2023-04-26T01:21:54;100492.88;;;4.38;76.66
17060;BME280;8646;49.716;9.266;2023-04-26T01:24:58;100479.53;;;4.32;76.81
17060;BME280;8646;49.716;9.266;2023-04-26T01:28:02;100476.91;;;4.29;77.02
17060;BME280;8646;49.716;9.266;2023-04-26T01:31:05;100476.03;;;4.30;77.34
17060;BME280;8646;49.716;9.266;2023-04-26T01:34:08;100488.56;;;4.25;77.40
17060;BME280;8646;49.716;9.266;2023-04-26T01:37:11;100477.03;;;4.21;77.55
17060;BME280;8646;49.716;9.266;2023-04-26T01:40:15;100470.81;;;4.17;77.98
17060;BME280;8646;49.716;9.266;2023-04-26T01:43:18;100471.75;;;4.15;77.84
17060;BME280;8646;49.716;9.266;2023-04-26T01:46:22;100472.72;;;4.11;78.25
17060;BME280;8646;49.716;9.266;2023-04-26T01:49:26;100474.50;;;4.09;78.41
17060;BME280;8646;49.716;9.266;2023-04-26T01:52:28;100470.06;;;4.06;78.41
17060;BME280;8646;49.716;9.266;2023-04-26T01:55:33;100487.09;;;4.04;78.56
17060;BME280;8646;49.716;9.266;2023-04-26T01:58:36;100478.19;;;4.02;78.73
17060;BME280;8646;49.716;9.266;2023-04-26T02:01:40;100472.94;;;3.93;78.80
17060;BME280;8646;49.716;9.266;2023-04-26T02:04:43;100474.66;;;3.98;79.10
17060;BME280;8646;49.716;9.266;2023-04-26T02:07:46;100484.53;;;3.96;78.94
17060;BME280;8646;49.716;9.266;2023-04-26T02:10:50;100480.09;;;3.92;78.73
17060;BME280;8646;49.716;9.266;2023-04-26T02:13:53;100481.97;;;3.87;78.68
17060;BME280;8646;49.716;9.266;2023-04-26T02:16:56;100475.75;;;3.82;78.60
17060;BME280;8646;49.716;9.266;2023-04-26T02:19:59;100477.59;;;3.80;78.50
17060;BME280;8646;49.716;9.266;2023-04-26T02:23:02;100482.97;;;3.77;78.85
17060;BME280;8646;49.716;9.266;2023-04-26T02:26:12;100476.75;;;3.73;79.03
17060;BME280;8646;49.716;9.266;2023-04-26T02:29:15;100479.50;;;3.69;79.19
17060;BME280;8646;49.716;9.266;2023-04-26T02:32:17;100483.97;;;3.67;79.39
17060;BME280;8646;49.716;9.266;2023-04-26T02:35:20;100483.97;;;3.67;79.22
17060;BME280;8646;49.716;9.266;2023-04-26T02:38:23;100489.41;;;3.62;79.42
17060;BME280;8646;49.716;9.266;2023-04-26T02:41:30;100489.50;;;3.56;79.33
17060;BME280;8646;49.716;9.266;2023-04-26T02:44:33;100492.19;;;3.55;79.60
17060;BME280;8646;49.716;9.266;2023-04-26T02:47:35;100492.19;;;3.52;79.33
17060;BME280;8646;49.716;9.266;2023-04-26T02:50:39;100488.66;;;3.50;79.54
17060;BME280;8646;49.716;9.266;2023-04-26T02:53:41;100494.06;;;3.47;79.84
17060;BME280;8646;49.716;9.266;2023-04-26T02:56:45;100483.38;;;3.43;79.93
17060;BME280;8646;49.716;9.266;2023-04-26T02:59:48;100487.00;;;3.39;80.17
17060;BME280;8646;49.716;9.266;2023-04-26T03:02:51;100488.78;;;3.40;80.12
17060;BME280;8646;49.716;9.266;2023-04-26T03:05:54;100481.75;;;3.29;80.22
17060;BME280;8646;49.716;9.266;2023-04-26T03:08:56;100486.25;;;3.25;80.40
17060;BME280;8646;49.716;9.266;2023-04-26T03:12:01;100488.91;;;3.25;80.16
17060;BME280;8646;49.716;9.266;2023-04-26T03:15:04;100489.88;;;3.20;80.13
17060;BME280;8646;49.716;9.266;2023-04-26T03:18:10;100475.69;;;3.10;80.31
17060;BME280;8646;49.716;9.266;2023-04-26T03:21:13;100480.22;;;3.08;80.45
17060;BME280;8646;49.716;9.266;2023-04-26T03:24:16;100486.47;;;3.05;80.61
17060;BME280;8646;49.716;9.266;2023-04-26T03:27:20;100490.03;;;3.04;80.86
17060;BME280;8646;49.716;9.266;2023-04-26T03:30:23;100497.19;;;3.01;81.04
17060;BME280;8646;49.716;9.266;2023-04-26T03:33:26;100489.22;;;2.98;80.92
17060;BME280;8646;49.716;9.266;2023-04-26T03:36:28;100489.22;;;2.96;81.18
17060;BME280;8646;49.716;9.266;2023-04-26T03:39:31;100482.09;;;2.97;81.06
17060;BME280;8646;49.716;9.266;2023-04-26T03:42:35;100485.72;;;2.90;81.36
17060;BME280;8646;49.716;9.266;2023-04-26T03:45:38;100491.06;;;2.87;81.37
17060;BME280;8646;49.716;9.266;2023-04-26T03:48:47;100492.03;;;2.81;81.39
17060;BME280;8646;49.716;9.266;2023-04-26T03:51:51;100490.25;;;2.80;81.43
17060;BME280;8646;49.716;9.266;2023-04-26T03:54:54;100491.16;;;2.78;81.41
17060;BME280;8646;49.716;9.266;2023-04-26T03:57:58;100494.78;;;2.74;81.34
17060;BME280;8646;49.716;9.266;2023-04-26T04:01:01;100486.75;;;2.74;81.67
17060;BME280;8646;49.716;9.266;2023-04-26T04:04:04;100491.22;;;2.73;81.83
17060;BME280;8646;49.716;9.266;2023-04-26T04:07:07;100489.41;;;2.74;81.71
17060;BME280;8646;49.716;9.266;2023-04-26T04:10:10;100493.00;;;2.69;81.53
17060;BME280;8646;49.716;9.266;2023-04-26T04:13:14;100495.69;;;2.69;81.87
17060;BME280;8646;49.716;9.266;2023-04-26T04:16:17;100505.50;;;2.67;81.84
17060;BME280;8646;49.716;9.266;2023-04-26T04:19:20;100503.75;;;2.66;81.91
17060;BME280;8646;49.716;9.266;2023-04-26T04:22:22;100504.63;;;2.67;81.76
17060;BME280;8646;49.716;9.266;2023-04-26T04:25:25;100489.44;;;2.71;82.01
17060;BME280;8646;49.716;9.266;2023-04-26T04:28:31;100501.00;;;2.71;81.81
17060;BME280;8646;49.716;9.266;2023-04-26T04:31:35;100499.25;;;2.70;81.66
17060;BME280;8646;49.716;9.266;2023-04-26T04:34:38;100509.91;;;2.73;81.90
17060;BME280;8646;49.716;9.266;2023-04-26T04:37:42;100506.34;;;2.76;81.70
17060;BME280;8646;49.716;9.266;2023-04-26T04:40:46;100519.66;;;2.79;81.93
17060;BME280;8646;49.716;9.266;2023-04-26T04:43:51;100511.63;;;2.80;81.72
17060;BME280;8646;49.716;9.266;2023-04-26T04:46:55;100521.50;;;2.75;81.66
17060;BME280;8646;49.716;9.266;2023-04-26T04:49:58;100514.38;;;2.76;81.30
17060;BME280;8646;49.716;9.266;2023-04-26T04:53:02;100513.44;;;2.78;81.35
17060;BME280;8646;49.716;9.266;2023-04-26T04:56:05;100508.97;;;2.82;81.61
17060;BME280;8646;49.716;9.266;2023-04-26T04:59:09;100490.31;;;2.74;81.59
17060;BME280;8646;49.716;9.266;2023-04-26T05:02:12;100522.25;;;2.89;81.73
17060;BME280;8646;49.716;9.266;2023-04-26T05:05:15;100521.38;;;2.89;81.32
17060;BME280;8646;49.716;9.266;2023-04-26T05:08:18;100518.69;;;2.89;81.12
17060;BME280;8646;49.716;9.266;2023-04-26T05:11:21;100527.56;;;2.92;81.16
17060;BME280;8646;49.716;9.266;2023-04-26T05:14:25;100534.66;;;2.98;81.01
17060;BME280;8646;49.716;9.266;2023-04-26T05:17:28;100539.06;;;3.02;81.04
17060;BME280;8646;49.716;9.266;2023-04-26T05:20:32;100541.72;;;3.05;81.05
17060;BME280;8646;49.716;9.266;2023-04-26T05:23:35;100541.66;;;3.11;80.76
17060;BME280;8646;49.716;9.266;2023-04-26T05:26:38;100546.03;;;3.21;80.60
17060;BME280;8646;49.716;9.266;2023-04-26T05:29:42;100519.38;;;3.09;80.36
17060;BME280;8646;49.716;9.266;2023-04-26T05:32:45;100547.66;;;3.36;80.22
17060;BME280;8646;49.716;9.266;2023-04-26T05:35:48;100549.38;;;3.44;80.21
17060;BME280;8646;49.716;9.266;2023-04-26T05:38:50;100556.41;;;3.52;79.90
17060;BME280;8646;49.716;9.266;2023-04-26T05:41:53;100553.56;;;3.68;80.40
17060;BME280;8646;49.716;9.266;2023-04-26T05:44:57;100553.44;;;3.80;80.70
17060;BME280;8646;49.716;9.266;2023-04-26T05:48:01;100548.69;;;4.04;81.05
17060;BME280;8646;49.716;9.266;2023-04-26T05:51:07;100546.06;;;5.19;79.07
17060;BME280;8646;49.716;9.266;2023-04-26T05:54:09;100537.25;;;6.47;76.21
17060;BME280;8646;49.716;9.266;2023-04-26T05:57:12;100529.13;;;7.55;73.31
17060;BME280;8646;49.716;9.266;2023-04-26T06:00:17;100522.88;;;8.48;71.27
17060;BME280;8646;49.716;9.266;2023-04-26T06:03:23;100510.97;;;9.09;68.86
17060;BME280;8646;49.716;9.266;2023-04-26T06:06:26;100507.78;;;9.74;66.41
17060;BME280;8646;49.716;9.266;2023-04-26T06:09:30;100480.97;;;10.17;64.95
17060;BME280;8646;49.716;9.266;2023-04-26T06:12:32;100486.78;;;10.75;62.56
17060;BME280;8646;49.716;9.266;2023-04-26T06:15:37;100485.31;;;10.88;60.75
17060;BME280;8646;49.716;9.266;2023-04-26T06:18:39;100485.66;;;11.23;58.26
17060;BME280;8646;49.716;9.266;2023-04-26T06:21:42;100478.03;;;11.53;56.86
17060;BME280;8646;49.716;9.266;2023-04-26T06:24:45;100450.53;;;11.62;55.57
17060;BME280;8646;49.716;9.266;2023-04-26T06:27:47;100478.13;;;12.10;54.14
17060;BME280;8646;49.716;9.266;2023-04-26T06:30:51;100477.16;;;12.32;53.26
17060;BME280;8646;49.716;9.266;2023-04-26T06:33:54;100480.28;;;12.41;51.94
17060;BME280;8646;49.716;9.266;2023-04-26T06:36:57;100477.31;;;12.47;51.27
17060;BME280;8646;49.716;9.266;2023-04-26T06:40:00;100485.13;;;12.53;50.80
17060;BME280;8646;49.716;9.266;2023-04-26T06:43:03;100460.91;;;12.49;50.29
17060;BME280;8646;49.716;9.266;2023-04-26T06:46:07;100481.94;;;12.81;49.97
17060;BME280;8646;49.716;9.266;2023-04-26T06:49:10;100483.72;;;12.82;49.47
17060;BME280;8646;49.716;9.266;2023-04-26T06:52:12;100478.06;;;12.68;49.51
17060;BME280;8646;49.716;9.266;2023-04-26T06:55:15;100474.53;;;12.85;49.17
17060;BME280;8646;49.716;9.266;2023-04-26T06:58:19;100461.31;;;12.96;48.79
17060;BME280;8646;49.716;9.266;2023-04-26T07:01:24;100458.78;;;13.10;48.56
17060;BME280;8646;49.716;9.266;2023-04-26T07:04:27;100466.16;;;13.25;48.16
17060;BME280;8646;49.716;9.266;2023-04-26T07:07:30;100462.31;;;13.47;47.70
17060;BME280;8646;49.716;9.266;2023-04-26T07:10:32;100474.16;;;13.63;47.45
17060;BME280;8646;49.716;9.266;2023-04-26T07:13:38;100457.69;;;13.66;47.24
17060;BME280;8646;49.716;9.266;2023-04-26T07:16:42;100454.56;;;13.73;47.34
17060;BME280;8646;49.716;9.266;2023-04-26T07:19:45;100453.94;;;13.68;47.12
17060;BME280;8646;49.716;9.266;2023-04-26T07:22:48;100450.94;;;13.73;46.87
17060;BME280;8646;49.716;9.266;2023-04-26T07:25:51;100451.34;;;13.83;46.82
17060;BME280;8646;49.716;9.266;2023-04-26T07:28:55;100449.81;;;13.94;46.58
17060;BME280;8646;49.716;9.266;2023-04-26T07:32:00;100447.41;;;13.88;46.50
17060;BME280;8646;49.716;9.266;2023-04-26T07:35:05;100450.91;;;13.57;47.32
17060;BME280;8646;49.716;9.266;2023-04-26T07:38:08;100441.47;;;13.47;47.23
17060;BME280;8646;49.716;9.266;2023-04-26T07:41:11;100440.19;;;13.20;47.94
17060;BME280;8646;49.716;9.266;2023-04-26T07:44:14;100459.59;;;12.57;49.63
17060;BME280;8646;49.716;9.266;2023-04-26T07:47:18;100460.81;;;11.94;50.51
17060;BME280;8646;49.716;9.266;2023-04-26T07:50:21;100451.88;;;11.52;51.24
17060;BME280;8646;49.716;9.266;2023-04-26T07:53:29;100457.56;;;11.25;52.07
17060;BME280;8646;49.716;9.266;2023-04-26T07:56:32;100454.31;;;11.17;51.49
17060;BME280;8646;49.716;9.266;2023-04-26T07:59:35;100451.81;;;11.33;50.56
17060;BME280;8646;49.716;9.266;2023-04-26T08:02:39;100442.31;;;11.63;49.52
17060;BME280;8646;49.716;9.266;2023-04-26T08:05:45;100447.25;;;11.94;48.53
17060;BME280;8646;49.716;9.266;2023-04-26T08:08:49;100439.22;;;12.11;47.26
17060;BME280;8646;49.716;9.266;2023-04-26T08:11:54;100442.16;;;12.07;46.95
17060;BME280;8646;49.716;9.266;2023-04-26T08:14:56;100452.50;;;11.78;47.01
17060;BME280;8646;49.716;9.266;2023-04-26T08:18:06;100439.63;;;11.63;47.79
17060;BME280;8646;49.716;9.266;2023-04-26T08:21:16;100437.84;;;11.62;43.04
17060;BME280;8646;49.716;9.266;2023-04-26T08:24:18;100436.66;;;11.49;44.69
17060;BME280;8646;49.716;9.266;2023-04-26T08:27:22;100450.03;;;11.52;45.27
17060;BME280;8646;49.716;9.266;2023-04-26T08:30:24;100446.66;;;11.67;44.67
17060;BME280;8646;49.716;9.266;2023-04-26T08:33:28;100437.84;;;11.62;43.88
17060;BME280;8646;49.716;9.266;2023-04-26T08:36:35;100438.00;;;11.59;43.75
17060;BME280;8646;49.716;9.266;2023-04-26T08:39:37;100441.47;;;11.83;44.23
17060;BME280;8646;49.716;9.266;2023-04-26T08:42:42;100437.31;;;12.13;43.92
17060;BME280;8646;49.716;9.266;2023-04-26T08:45:45;100437.22;;;12.34;43.16
17060;BME280;8646;49.716;9.266;2023-04-26T08:48:59;100436.22;;;12.36;42.09
17060;BME280;8646;49.716;9.266;2023-04-26T08:52:08;100436.28;;;12.35;41.67
17060;BME280;8646;49.716;9.266;2023-04-26T08:55:12;100442.50;;;12.18;42.23
17060;BME280;8646;49.716;9.266;2023-04-26T08:58:17;100446.13;;;11.79;43.02
17060;BME280;8646;49.716;9.266;2023-04-26T09:01:21;100435.53;;;11.53;43.01
17060;BME280;8646;49.716;9.266;2023-04-26T09:04:26;100439.75;;;11.40;44.42
17060;BME280;8646;49.716;9.266;2023-04-26T09:07:30;100422.81;;;11.55;42.87
17060;BME280;8646;49.716;9.266;2023-04-26T09:10:34;100429.47;;;11.48;42.83
17060;BME280;8646;49.716;9.266;2023-04-26T09:13:37;100428.13;;;11.58;42.68
17060;BME280;8646;49.716;9.266;2023-04-26T09:16:39;100433.41;;;11.81;43.03
17060;BME280;8646;49.716;9.266;2023-04-26T09:19:43;100422.19;;;12.27;42.71
17060;BME280;8646;49.716;9.266;2023-04-26T09:22:47;100418.59;;;12.64;42.24
17060;BME280;8646;49.716;9.266;2023-04-26T09:25:50;100406.88;;;12.97;41.71
17060;BME280;8646;49.716;9.266;2023-04-26T09:29:11;100400.63;;;13.31;41.23
17060;BME280;8646;49.716;9.266;2023-04-26T09:32:17;100402.69;;;13.61;40.59
17060;BME280;8646;49.716;9.266;2023-04-26T09:35:29;100405.75;;;13.70;40.22
17060;BME280;8646;49.716;9.266;2023-04-26T09:38:41;100387.56;;;13.88;39.91
17060;BME280;8646;49.716;9.266;2023-04-26T09:41:44;100386.03;;;14.16;40.60
17060;BME280;8646;49.716;9.266;2023-04-26T09:44:46;100383.50;;;14.44;40.38
17060;BME280;8646;49.716;9.266;2023-04-26T09:47:49;100396.06;;;14.62;39.46
17060;BME280;8646;49.716;9.266;2023-04-26T09:50:55;100389.66;;;14.63;37.70
17060;BME280;8646;49.716;9.266;2023-04-26T09:53:59;100385.69;;;14.53;37.59
17060;BME280;8646;49.716;9.266;2023-04-26T09:57:02;100397.81;;;14.63;37.67
17060;BME280;8646;49.716;9.266;2023-04-26T10:00:06;100388.38;;;14.84;37.49
17060;BME280;8646;49.716;9.266;2023-04-26T10:03:12;100385.13;;;14.94;35.29
17060;BME280;8646;49.716;9.266;2023-04-26T10:06:18;100383.69;;;14.57;35.58
17060;BME280;8646;49.716;9.266;2023-04-26T10:09:20;100387.28;;;14.57;36.32
17060;BME280;8646;49.716;9.266;2023-04-26T10:12:23;100375.00;;;14.66;36.07
17060;BME280;8646;49.716;9.266;2023-04-26T10:15:26;100382.84;;;14.86;36.22
17060;BME280;8646;49.716;9.266;2023-04-26T10:18:30;100375.06;;;15.10;36.12
17060;BME280;8646;49.716;9.266;2023-04-26T10:21:37;100371.78;;;15.19;34.88
17060;BME280;8646;49.716;9.266;2023-04-26T10:24:42;100379.19;;;15.01;35.54
17060;BME280;8646;49.716;9.266;2023-04-26T10:27:49;100376.00;;;14.79;36.32
17060;BME280;8646;49.716;9.266;2023-04-26T10:30:53;100374.38;;;14.45;36.35
17060;BME280;8646;49.716;9.266;2023-04-26T10:34:18;100365.66;;;14.23;36.87
17060;BME280;8646;49.716;9.266;2023-04-26T10:37:23;100367.34;;;14.25;37.87
17060;BME280;8646;49.716;9.266;2023-04-26T10:40:27;100357.78;;;14.34;37.09
17060;BME280;8646;49.716;9.266;2023-04-26T10:43:30;100348.28;;;14.57;36.85
17060;BME280;8646;49.716;9.266;2023-04-26T10:46:35;100347.72;;;14.81;36.66
17060;BME280;8646;49.716;9.266;2023-04-26T10:49:47;100340.84;;;14.90;36.33
17060;BME280;8646;49.716;9.266;2023-04-26T10:53:06;100342.28;;;15.25;36.06
17060;BME280;8646;49.716;9.266;2023-04-26T10:56:09;100342.81;;;15.32;35.83
17060;BME280;8646;49.716;9.266;2023-04-26T10:59:13;100342.50;;;15.37;35.31
17060;BME280;8646;49.716;9.266;2023-04-26T11:02:45;100336.47;;;15.02;34.75
17060;BME280;8646;49.716;9.266;2023-04-26T11:05:53;100336.31;;;15.05;35.45
17060;BME280;8646;49.716;9.266;2023-04-26T11:09:00;100330.72;;;15.50;35.25
17060;BME280;8646;49.716;9.266;2023-04-26T11:12:05;100328.03;;;15.93;35.12
17060;BME280;8646;49.716;9.266;2023-04-26T11:15:11;100311.22;;;16.27;34.80
17060;BME280;8646;49.716;9.266;2023-04-26T11:18:17;100308.22;;;16.45;34.36
17060;BME280;8646;49.716;9.266;2023-04-26T11:21:20;100310.50;;;16.65;33.79
17060;BME280;8646;49.716;9.266;2023-04-26T11:24:29;100307.28;;;16.58;34.21
17060;BME280;8646;49.716;9.266;2023-04-26T11:27:32;100307.94;;;16.76;33.90
17060;BME280;8646;49.716;9.266;2023-04-26T11:30:35;100301.25;;;16.80;33.56
17060;BME280;8646;49.716;9.266;2023-04-26T11:33:40;100296.47;;;16.57;33.62
17060;BME280;8646;49.716;9.266;2023-04-26T11:36:43;100300.56;;;16.64;33.36
17060;BME280;8646;49.716;9.266;2023-04-26T11:39:50;100296.13;;;16.75;33.20
17060;BME280;8646;49.716;9.266;2023-04-26T11:42:53;100288.38;;;16.82;32.99
17060;BME280;8646;49.716;9.266;2023-04-26T11:45:58;100286.50;;;16.70;32.39
17060;BME280;8646;49.716;9.266;2023-04-26T11:49:01;100287.03;;;16.21;32.85
17060;BME280;8646;49.716;9.266;2023-04-26T11:52:04;100296.06;;;15.95;32.46
17060;BME280;8646;49.716;9.266;2023-04-26T11:55:09;100303.97;;;15.57;33.91
17060;BME280;8646;49.716;9.266;2023-04-26T11:58:13;100289.81;;;15.36;34.35
17060;BME280;8646;49.716;9.266;2023-04-26T12:01:20;100294.03;;;15.70;34.27
17060;BME280;8646;49.716;9.266;2023-04-26T12:04:26;100289.75;;;15.80;34.10
17060;BME280;8646;49.716;9.266;2023-04-26T12:07:34;100284.31;;;15.80;33.95
17060;BME280;8646;49.716;9.266;2023-04-26T12:10:39;100284.97;;;15.70;34.00
17060;BME280;8646;49.716;9.266;2023-04-26T12:13:42;100287.91;;;15.67;34.60
17060;BME280;8646;49.716;9.266;2023-04-26T12:16:45;100292.00;;;15.59;34.43
17060;BME280;8646;49.716;9.266;2023-04-26T12:19:48;100287.81;;;15.68;33.91
17060;BME280;8646;49.716;9.266;2023-04-26T12:23:02;100285.44;;;15.90;34.28
17060;BME280;8646;49.716;9.266;2023-04-26T12:26:07;100269.34;;;16.00;34.09
17060;BME280;8646;49.716;9.266;2023-04-26T12:29:12;100262.84;;;16.15;33.49
17060;BME280;8646;49.716;9.266;2023-04-26T12:32:15;100261.47;;;16.22;33.16
17060;BME280;8646;49.716;9.266;2023-04-26T12:35:17;100262.41;;;16.09;33.61
17060;BME280;8646;49.716;9.266;2023-04-26T12:38:20;100267.38;;;16.02;33.40
17060;BME280;8646;49.716;9.266;2023-04-26T12:41:24;100258.53;;;16.25;33.69
17060;BME280;8646;49.716;9.266;2023-04-26T12:44:27;100252.66;;;16.31;33.34
17060;BME280;8646;49.716;9.266;2023-04-26T12:47:30;100252.97;;;16.00;33.03
17060;BME280;8646;49.716;9.266;2023-04-26T12:50:33;100260.72;;;15.79;33.30
17060;BME280;8646;49.716;9.266;2023-04-26T12:53:35;100254.38;;;15.79;33.97
17060;BME280;8646;49.716;9.266;2023-04-26T12:56:39;100255.94;;;15.69;33.41
17060;BME280;8646;49.716;9.266;2023-04-26T12:59:44;100266.16;;;15.51;33.88
17060;BME280;8646;49.716;9.266;2023-04-26T13:02:47;100254.97;;;15.70;33.72
17060;BME280;8646;49.716;9.266;2023-04-26T13:05:50;100263.50;;;15.92;33.80
17060;BME280;8646;49.716;9.266;2023-04-26T13:08:53;100255.88;;;16.11;33.23
17060;BME280;8646;49.716;9.266;2023-04-26T13:11:57;100263.22;;;15.96;33.83
17060;BME280;8646;49.716;9.266;2023-04-26T13:15:00;100255.56;;;15.60;33.61
17060;BME280;8646;49.716;9.266;2023-04-26T13:18:03;100259.81;;;15.36;34.15
17060;BME280;8646;49.716;9.266;2023-04-26T13:21:06;100255.13;;;15.10;33.81
17060;BME280;8646;49.716;9.266;2023-04-26T13:24:09;100257.44;;;15.02;34.08
17060;BME280;8646;49.716;9.266;2023-04-26T13:27:13;100263.72;;;15.18;36.33
17060;BME280;8646;49.716;9.266;2023-04-26T13:30:15;100253.09;;;15.27;35.15
17060;BME280;8646;49.716;9.266;2023-04-26T13:33:18;100245.81;;;15.71;35.14
17060;BME280;8646;49.716;9.266;2023-04-26T13:36:21;100246.56;;;15.87;35.20
17060;BME280;8646;49.716;9.266;2023-04-26T13:39:27;100246.72;;;15.98;34.61
17060;BME280;8646;49.716;9.266;2023-04-26T13:42:31;100241.34;;;16.37;34.68
17060;BME280;8646;49.716;9.266;2023-04-26T13:45:34;100253.28;;;16.22;33.79
17060;BME280;8646;49.716;9.266;2023-04-26T13:48:37;100245.44;;;16.30;34.54
17060;BME280;8646;49.716;9.266;2023-04-26T13:51:40;100258.53;;;16.25;34.29
17060;BME280;8646;49.716;9.266;2023-04-26T13:54:43;100258.00;;;16.20;34.27
17060;BME280;8646;49.716;9.266;2023-04-26T13:57:47;100254.84;;;16.26;34.37
17060;BME280;8646;49.716;9.266;2023-04-26T14:00:50;100246.81;;;16.37;33.95
17060;BME280;8646;49.716;9.266;2023-04-26T14:03:53;100256.66;;;16.67;33.65
17060;BME280;8646;49.716;9.266;2023-04-26T14:06:57;100252.56;;;16.60;33.34
17060;BME280;8646;49.716;9.266;2023-04-26T14:10:00;100252.56;;;16.60;33.62
17060;BME280;8646;49.716;9.266;2023-04-26T14:13:04;100251.06;;;16.41;33.61
17060;BME280;8646;49.716;9.266;2023-04-26T14:16:07;100250.66;;;16.48;33.70
17060;BME280;8646;49.716;9.266;2023-04-26T14:19:11;100251.63;;;16.47;33.80
17060;BME280;8646;49.716;9.266;2023-04-26T14:22:15;100248.66;;;16.37;33.78
17060;BME280;8646;49.716;9.266;2023-04-26T14:25:18;100240.31;;;16.53;31.90
17060;BME280;8646;49.716;9.266;2023-04-26T14:28:22;100240.06;;;16.70;32.37
17060;BME280;8646;49.716;9.266;2023-04-26T14:31:25;100242.97;;;16.67;31.63
17060;BME280;8646;49.716;9.266;2023-04-26T14:34:28;100238.16;;;16.70;32.49
17060;BME280;8646;49.716;9.266;2023-04-26T14:37:31;100233.63;;;16.96;32.28
17060;BME280;8646;49.716;9.266;2023-04-26T14:40:34;100220.84;;;17.22;30.80
17060;BME280;8646;49.716;9.266;2023-04-26T14:43:39;100227.50;;;16.93;30.90
17060;BME280;8646;49.716;9.266;2023-04-26T14:46:41;100234.41;;;16.59;31.82
17060;BME280;8646;49.716;9.266;2023-04-26T14:49:44;100223.31;;;16.62;31.85
17060;BME280;8646;49.716;9.266;2023-04-26T14:52:47;100229.31;;;16.67;31.76
17060;BME280;8646;49.716;9.266;2023-04-26T14:55:53;100232.84;;;16.69;31.92
17060;BME280;8646;49.716;9.266;2023-04-26T14:58:57;100220.56;;;16.35;31.91
17060;BME280;8646;49.716;9.266;2023-04-26T15:02:01;100215.63;;;16.27;30.64
17060;BME280;8646;49.716;9.266;2023-04-26T15:05:05;100218.25;;;16.02;31.11
17060;BME280;8646;49.716;9.266;2023-04-26T15:08:08;100215.50;;;15.75;31.19
17060;BME280;8646;49.716;9.266;2023-04-26T15:11:11;100208.00;;;15.50;31.97
17060;BME280;8646;49.716;9.266;2023-04-26T15:14:15;100217.47;;;15.45;31.95
17060;BME280;8646;49.716;9.266;2023-04-26T15:17:18;100226.72;;;15.42;32.70
17060;BME280;8646;49.716;9.266;2023-04-26T15:20:21;100227.88;;;15.52;33.18
17060;BME280;8646;49.716;9.266;2023-04-26T15:23:24;100222.28;;;15.55;31.80
17060;BME280;8646;49.716;9.266;2023-04-26T15:26:27;100229.84;;;15.36;32.62
17060;BME280;8646;49.716;9.266;2023-04-26T15:29:33;100227.69;;;15.27;32.14
17060;BME280;8646;49.716;9.266;2023-04-26T15:32:36;100224.97;;;15.27;32.57
17060;BME280;8646;49.716;9.266;2023-04-26T15:35:39;100216.00;;;15.11;32.16
17060;BME280;8646;49.716;9.266;2023-04-26T15:38:42;100209.97;;;15.06;32.75
17060;BME280;8646;49.716;9.266;2023-04-26T15:41:45;100212.63;;;15.07;32.57
17060;BME280;8646;49.716;9.266;2023-04-26T15:44:49;100216.88;;;14.97;33.17
17060;BME280;8646;49.716;9.266;2023-04-26T15:47:52;100210.06;;;15.18;31.99
17060;BME280;8646;49.716;9.266;2023-04-26T15:50:55;100214.44;;;14.93;32.29
17060;BME280;8646;49.716;9.266;2023-04-26T15:53:58;100220.88;;;14.92;32.94
17060;BME280;8646;49.716;9.266;2023-04-26T15:57:01;100214.75;;;15.31;32.66
17060;BME280;8646;49.716;9.266;2023-04-26T16:00:07;100209.84;;;15.50;32.27
17060;BME280;8646;49.716;9.266;2023-04-26T16:03:14;100201.19;;;15.57;31.38
17060;BME280;8646;49.716;9.266;2023-04-26T16:06:17;100208.09;;;15.49;32.51
17060;BME280;8646;49.716;9.266;2023-04-26T16:09:20;100212.13;;;15.57;31.95
17060;BME280;8646;49.716;9.266;2023-04-26T16:12:26;100208.34;;;15.32;32.40
17060;BME280;8646;49.716;9.266;2023-04-26T16:15:30;100210.06;;;15.04;32.82
17060;BME280;8646;49.716;9.266;2023-04-26T16:18:33;100197.41;;;14.89;32.80
17060;BME280;8646;49.716;9.266;2023-04-26T16:21:36;100187.97;;;14.80;32.69